Time;durP1;ratioP1;P1;durP2;ratioP2;P2;SDS_P1;SDS_P2;PMS_P1;PMS_P2;Temp;Humidity;BMP_temperature;BMP_pressure;BME280_temperature;BME280_humidity;BME280_pressure;Samples;Min_cycle;Max_cycle;Signal;HPM_P1;HPM_P2
2023/01/06 00:01:30;;;;;;;;;;;;;;;;;;4977312;28;19928;-53
2023/01/06 00:03:59;;;;;;;;;;;;;;;;;;4981399;28;19992;-53
2023/01/06 00:06:27;;;;;;;;;;;;;;;;;;4972548;28;19926;-53
2023/01/06 00:08:54;;;;;;;;;;;;;;;;;;4977522;28;20019;-53
2023/01/06 00:11:20;;;;;;;;;;;;;;;;;;4988586;28;19932;-53
2023/01/06 00:13:45;;;;;;;;;;;;;;;;;;4981428;28;19922;-53
2023/01/06 00:16:11;;;;;;;;;;;;;;;;;;4982484;28;19979;-53
2023/01/06 00:18:37;;;;;;;;;;;;;;;;;;4984231;28;19921;-54
2023/01/06 00:21:03;;;;;;;;;;;;;;;;;;4981331;28;20633;-53
2023/01/06 00:23:29;;;;;;;;;;;;;;;;;;4968540;28;19924;-53
2023/01/06 00:25:55;;;;;;;;;;;;;;;;;;4971465;28;19930;-53
2023/01/06 00:28:21;;;;;;;;;;;;;;;;;;4981460;28;20390;-53
2023/01/06 00:30:47;;;;;;;;;;;;;;;;;;4975129;28;20595;-54
2023/01/06 00:33:13;;;;;;;;;;;;;;;;;;4989243;28;20454;-54
2023/01/06 00:35:38;;;;;;;;;;;;;;;;;;4994986;28;20392;-53
2023/01/06 00:38:04;;;;;;;;;;;;;;;;;;4990555;28;19956;-53
2023/01/06 00:40:30;;;;;;;;;;;;;;;;;;4987469;28;19998;-53
2023/01/06 00:42:56;;;;;;;;;;;;;;;;;;4980564;28;20348;-54
2023/01/06 00:45:22;;;;;;;;;;;;;;;;;;4981836;28;21365;-53
2023/01/06 00:47:48;;;;;;;;;;;;;;;;;;4983912;28;20964;-53
2023/01/06 00:50:14;;;;;;;;;;;;;;;;;;4982595;28;19925;-53
2023/01/06 00:52:39;;;;;;;;;;;;;;;;;;4995757;28;20310;-52
2023/01/06 00:55:05;;;;;;;;;;;;;;;;;;4988486;28;19914;-53
2023/01/06 00:57:31;;;;;;;;;;;;;;;;;;4980580;28;19957;-52
2023/01/06 00:59:57;;;;;;;;;;;;;;;;;;4987804;28;19952;-53
2023/01/06 01:02:23;;;;;;;;;;;;;;;;;;4978166;28;19937;-53
2023/01/06 01:04:49;;;;;;;;;;;;;;;;;;4978098;28;19928;-53
2023/01/06 01:07:15;;;;;;;;;;;;;;;;;;5000518;28;19925;-53
2023/01/06 01:09:41;;;;;;;;;;;;;;;;;;4981887;28;19924;-53
2023/01/06 01:12:10;;;;;;;;;;;;;;;;;;4980893;28;19925;-53
2023/01/06 01:14:36;;;;;;;;;;;;;;;;;;4981507;28;20261;-53
2023/01/06 01:17:02;;;;;;;;;;;;;;;;;;4990098;28;19932;-53
2023/01/06 01:19:28;;;;;;;;;;;;;;;;;;4982288;28;19929;-53
2023/01/06 01:21:53;;;;;;;;;;;;;;;;;;4963679;28;20402;-53
2023/01/06 01:24:19;;;;;;;;;;;;;;;;;;4988176;28;19931;-53
2023/01/06 01:26:45;;;;;;;;;;;;;;;;;;4984139;28;20282;-53
2023/01/06 01:29:11;;;;;;;;;;;;;;;;;;4997630;28;19925;-53
2023/01/06 01:31:37;;;;;;;;;;;;;;;;;;4995448;28;19925;-53
2023/01/06 01:34:03;;;;;;;;;;;;;;;;;;4998801;28;19933;-53
2023/01/06 01:36:29;;;;;;;;;;;;;;;;;;4988457;28;19924;-53
2023/01/06 01:38:55;;;;;;;;;;;;;;;;;;4995763;28;19964;-52
2023/01/06 01:41:21;;;;;;;;;;;;;;;;;;4999559;28;19953;-53
2023/01/06 01:43:47;;;;;;;;;;;;;;;;;;4988894;28;19928;-53
2023/01/06 01:46:13;;;;;;;;;;;;;;;;;;4963984;28;19940;-53
2023/01/06 01:48:39;;;;;;;;;;;;;;;;;;4981269;28;19928;-53
2023/01/06 01:51:05;;;;;;;;;;;;;;;;;;4995047;28;19920;-53
2023/01/06 01:53:31;;;;;;;;;;;;;;;;;;5000996;28;20426;-53
2023/01/06 01:55:56;;;;;;;;;;;;;;;;;;4979353;28;20024;-53
2023/01/06 01:58:22;;;;;;;;;;;;;;;;;;5000193;28;20003;-52
2023/01/06 02:00:48;;;;;;;;;;;;;;;;;;4985382;28;19972;-53
2023/01/06 02:05:44;;;;;;;;;;;;;;;;;;5035173;22;19951;-67
2023/01/06 02:08:10;;;;;;;;;;;;;;;;;;5004313;28;20023;-67
2023/01/06 02:10:36;;;;;;;;;;;;;;;;;;5006653;28;19916;-68
2023/01/06 02:13:02;;;;;;;;;;;;;;;;;;5003567;28;21288;-69
2023/01/06 02:15:28;;;;;;;;;;;;;;;;;;4997233;28;19982;-68
2023/01/06 02:17:54;;;;;;;;;;;;;;;;;;5003235;28;19921;-68
2023/01/06 02:20:20;;;;;;;;;;;;;;;;;;5004204;28;20003;-69
2023/01/06 02:22:46;;;;;;;;;;;;;;;;;;5013249;28;19924;-68
2023/01/06 02:25:11;;;;;;;;;;;;;;;;;;5004041;28;20349;-67
2023/01/06 02:27:37;;;;;;;;;;;;;;;;;;5007840;28;20003;-68
2023/01/06 02:30:03;;;;;;;;;;;;;;;;;;5007580;28;19917;-68
2023/01/06 02:32:29;;;;;;;;;;;;;;;;;;4994564;28;19925;-68
2023/01/06 02:34:55;;;;;;;;;;;;;;;;;;4991013;28;19928;-68
2023/01/06 02:37:21;;;;;;;;;;;;;;;;;;4988325;28;19925;-68
2023/01/06 02:39:47;;;;;;;;;;;;;;;;;;5004667;28;19921;-68
2023/01/06 02:42:12;;;;;;;;;;;;;;;;;;4997650;28;19921;-68
2023/01/06 02:44:38;;;;;;;;;;;;;;;;;;5004600;28;19955;-69
2023/01/06 02:47:04;;;;;;;;;;;;;;;;;;5002054;28;19929;-67
2023/01/06 02:49:30;;;;;;;;;;;;;;;;;;5009140;28;19981;-69
2023/01/06 02:51:56;;;;;;;;;;;;;;;;;;5008014;28;19976;-69
2023/01/06 02:54:22;;;;;;;;;;;;;;;;;;5004180;28;19948;-69
2023/01/06 02:56:48;;;;;;;;;;;;;;;;;;5007228;28;19963;-68
2023/01/06 02:59:13;;;;;;;;;;;;;;;;;;5004125;28;20360;-69
2023/01/06 03:01:40;;;;;;;;;;;;;;;;;;5002454;28;19932;-68
2023/01/06 03:04:06;;;;;;;;;;;;;;;;;;5003599;28;19943;-70
2023/01/06 03:06:31;;;;;;;;;;;;;;;;;;5011827;28;20764;-69
2023/01/06 03:08:57;;;;;;;;;;;;;;;;;;5018068;28;20271;-67
2023/01/06 03:11:23;;;;;;;;;;;;;;;;;;5022726;28;19944;-69
2023/01/06 03:13:49;;;;;;;;;;;;;;;;;;5016400;28;20688;-68
2023/01/06 03:16:15;;;;;;;;;;;;;;;;;;5019488;28;19921;-68
2023/01/06 03:18:41;;;;;;;;;;;;;;;;;;5022672;28;19925;-69
2023/01/06 03:21:07;;;;;;;;;;;;;;;;;;5019340;28;19924;-68
2023/01/06 03:23:32;;;;;;;;;;;;;;;;;;5020120;28;20305;-69
2023/01/06 03:25:58;;;;;;;;;;;;;;;;;;5000798;28;20368;-68
2023/01/06 03:28:24;;;;;;;;;;;;;;;;;;5024025;28;19936;-68
2023/01/06 03:30:50;;;;;;;;;;;;;;;;;;5021277;28;20505;-69
2023/01/06 03:33:16;;;;;;;;;;;;;;;;;;5022269;28;20382;-69
2023/01/06 03:35:42;;;;;;;;;;;;;;;;;;5028026;28;19921;-69
2023/01/06 03:38:07;;;;;;;;;;;;;;;;;;5025508;28;19928;-69
2023/01/06 03:40:33;;;;;;;;;;;;;;;;;;5019257;28;19927;-69
2023/01/06 03:43:11;;;;;;;;;;;;;;;;;;5024475;28;19925;-69
2023/01/06 03:45:37;;;;;;;;;;;;;;;;;;5018006;28;19928;-68
2023/01/06 03:48:03;;;;;;;;;;;;;;;;;;5025983;28;20292;-68
2023/01/06 03:50:29;;;;;;;;;;;;;;;;;;5018447;28;19921;-68
2023/01/06 03:52:55;;;;;;;;;;;;;;;;;;5026961;28;19925;-68
2023/01/06 03:55:20;;;;;;;;;;;;;;;;;;5019379;28;19988;-66
2023/01/06 03:57:46;;;;;;;;;;;;;;;;;;5026154;28;19967;-67
2023/01/06 04:00:12;;;;;;;;;;;;;;;;;;5003226;28;20668;-68
2023/01/06 04:02:38;;;;;;;;;;;;;;;;;;5017367;28;19920;-68
2023/01/06 04:05:04;;;;;;;;;;;;;;;;;;5023832;28;19948;-67
2023/01/06 04:07:30;;;;;;;;;;;;;;;;;;5004735;28;19928;-68
2023/01/06 04:09:56;;;;;;;;;;;;;;;;;;5009211;28;19931;-68
2023/01/06 04:12:37;;;;;;;;;;;;;;;;;;5009684;28;20394;-69
2023/01/06 04:15:03;;;;;;;;;;;;;;;;;;5006372;28;19922;-68
2023/01/06 04:17:29;;;;;;;;;;;;;;;;;;5011460;28;19921;-69
2023/01/06 04:19:54;;;;;;;;;;;;;;;;;;5009114;28;19972;-68
2023/01/06 04:22:20;;;;;;;;;;;;;;;;;;5003405;28;19925;-69
2023/01/06 04:24:46;;;;;;;;;;;;;;;;;;5009939;28;19925;-68
2023/01/06 04:27:12;;;;;;;;;;;;;;;;;;5011429;28;20016;-69
2023/01/06 04:29:38;;;;;;;;;;;;;;;;;;5008319;28;20401;-69
2023/01/06 04:32:04;;;;;;;;;;;;;;;;;;5001541;28;19928;-66
2023/01/06 04:34:30;;;;;;;;;;;;;;;;;;5002966;28;19917;-69
2023/01/06 04:36:55;;;;;;;;;;;;;;;;;;4999411;28;19925;-68
2023/01/06 04:39:21;;;;;;;;;;;;;;;;;;5005391;28;20074;-69
2023/01/06 04:41:47;;;;;;;;;;;;;;;;;;5008353;28;19932;-67
2023/01/06 04:44:13;;;;;;;;;;;;;;;;;;5003977;28;19968;-68
2023/01/06 04:46:39;;;;;;;;;;;;;;;;;;4997919;28;19925;-67
2023/01/06 04:49:05;;;;;;;;;;;;;;;;;;4993848;28;19935;-69
2023/01/06 04:51:31;;;;;;;;;;;;;;;;;;5003425;28;19918;-68
2023/01/06 04:53:56;;;;;;;;;;;;;;;;;;5003615;28;19932;-69
2023/01/06 04:56:22;;;;;;;;;;;;;;;;;;5008618;28;19932;-68
2023/01/06 04:58:48;;;;;;;;;;;;;;;;;;5004001;28;19936;-69
2023/01/06 05:01:14;;;;;;;;;;;;;;;;;;4986620;28;20482;-68
2023/01/06 05:03:40;;;;;;;;;;;;;;;;;;5003261;28;19917;-68
2023/01/06 05:06:08;;;;;;;;;;;;;;;;;;4999790;28;19929;-69
2023/01/06 05:08:34;;;;;;;;;;;;;;;;;;5024515;28;19956;-69
2023/01/06 05:11:00;;;;;;;;;;;;;;;;;;5018003;28;20024;-69
2023/01/06 05:13:26;;;;;;;;;;;;;;;;;;5017250;28;19924;-68
2023/01/06 05:15:52;;;;;;;;;;;;;;;;;;5017892;28;19925;-67
2023/01/06 05:18:17;;;;;;;;;;;;;;;;;;5020093;28;19936;-69
2023/01/06 05:20:43;;;;;;;;;;;;;;;;;;5024894;28;20351;-67
2023/01/06 05:23:09;;;;;;;;;;;;;;;;;;5018638;28;20614;-67
2023/01/06 05:25:35;;;;;;;;;;;;;;;;;;5000235;28;19917;-69
2023/01/06 05:28:01;;;;;;;;;;;;;;;;;;5020270;28;19932;-69
2023/01/06 05:30:27;;;;;;;;;;;;;;;;;;5023872;28;20521;-68
2023/01/06 05:32:53;;;;;;;;;;;;;;;;;;5025680;28;20468;-68
2023/01/06 05:35:19;;;;;;;;;;;;;;;;;;5031476;28;20453;-68
2023/01/06 05:37:45;;;;;;;;;;;;;;;;;;5026739;28;19931;-69
2023/01/06 05:40:11;;;;;;;;;;;;;;;;;;5027656;28;19925;-69
2023/01/06 05:42:37;;;;;;;;;;;;;;;;;;5016506;28;19917;-69
2023/01/06 05:45:02;;;;;;;;;;;;;;;;;;5018870;28;20396;-69
2023/01/06 05:47:28;;;;;;;;;;;;;;;;;;5021736;28;21079;-68
2023/01/06 05:49:54;;;;;;;;;;;;;;;;;;5024211;28;19925;-67
2023/01/06 05:52:20;;;;;;;;;;;;;;;;;;5011261;28;20028;-69
2023/01/06 05:54:46;;;;;;;;;;;;;;;;;;5007743;28;20271;-68
2023/01/06 05:57:12;;;;;;;;;;;;;;;;;;5017621;28;19928;-68
2023/01/06 05:59:38;;;;;;;;;;;;;;;;;;5026869;28;20287;-68
2023/01/06 06:02:03;;;;;;;;;;;;;;;;;;5001960;28;19921;-68
2023/01/06 06:04:29;;;;;;;;;;;;;;;;;;5013455;28;20288;-68
2023/01/06 06:06:55;;;;;;;;;;;;;;;;;;5023259;28;19928;-67
2023/01/06 06:09:21;;;;;;;;;;;;;;;;;;5024312;28;20024;-68
2023/01/06 06:11:50;;;;;;;;;;;;;;;;;;5024731;28;19916;-68
2023/01/06 06:14:16;;;;;;;;;;;;;;;;;;5007630;28;19920;-68
2023/01/06 06:16:42;;;;;;;;;;;;;;;;;;5010376;28;19932;-68
2023/01/06 06:19:08;;;;;;;;;;;;;;;;;;5021571;28;19925;-68
2023/01/06 06:21:34;;;;;;;;;;;;;;;;;;5025356;28;19983;-69
2023/01/06 06:23:59;;;;;;;;;;;;;;;;;;5026392;28;19924;-68
2023/01/06 06:26:25;;;;;;;;;;;;;;;;;;5014681;28;19924;-69
2023/01/06 06:28:51;;;;;;;;;;;;;;;;;;5019642;28;20268;-69
2023/01/06 06:31:17;;;;;;;;;;;;;;;;;;5015985;28;19966;-67
2023/01/06 06:33:43;;;;;;;;;;;;;;;;;;5019660;28;19932;-67
2023/01/06 06:36:10;;;;;;;;;;;;;;;;;;5018707;28;19932;-67
2023/01/06 06:38:36;;;;;;;;;;;;;;;;;;5026737;28;19917;-68
2023/01/06 06:41:02;;;;;;;;;;;;;;;;;;5020742;28;20349;-67
2023/01/06 06:43:28;;;;;;;;;;;;;;;;;;5015108;28;19930;-68
2023/01/06 06:45:54;;;;;;;;;;;;;;;;;;5007859;28;19974;-67
2023/01/06 06:48:20;;;;;;;;;;;;;;;;;;5017809;28;20326;-67
2023/01/06 06:50:46;;;;;;;;;;;;;;;;;;5021381;28;19964;-68
2023/01/06 06:53:12;;;;;;;;;;;;;;;;;;4998576;28;19928;-68
2023/01/06 06:55:37;;;;;;;;;;;;;;;;;;4997829;28;19924;-68
2023/01/06 06:58:03;;;;;;;;;;;;;;;;;;5020093;28;19978;-68
2023/01/06 07:00:29;;;;;;;;;;;;;;;;;;5011114;28;21364;-68
2023/01/06 07:02:55;;;;;;;;;;;;;;;;;;4961405;28;20027;-68
2023/01/06 07:05:24;;;;;;;;;;;;;;;;;;5027112;28;19925;-68
2023/01/06 07:07:50;;;;;;;;;;;;;;;;;;5023240;28;19970;-67
2023/01/06 07:10:16;;;;;;;;;;;;;;;;;;5016281;28;20456;-68
2023/01/06 07:12:41;;;;;;;;;;;;;;;;;;5024387;28;20019;-67
2023/01/06 07:15:07;;;;;;;;;;;;;;;;;;5023866;28;19924;-68
2023/01/06 07:17:33;;;;;;;;;;;;;;;;;;5022931;28;20048;-68
2023/01/06 07:19:59;;;;;;;;;;;;;;;;;;5013168;28;20835;-69
2023/01/06 07:22:25;;;;;;;;;;;;;;;;;;4998766;28;19927;-69
2023/01/06 07:24:51;;;;;;;;;;;;;;;;;;5018980;28;19924;-68
2023/01/06 07:27:17;;;;;;;;;;;;;;;;;;5021991;28;19917;-67
2023/01/06 07:29:42;;;;;;;;;;;;;;;;;;5016060;28;19924;-69
2023/01/06 07:32:08;;;;;;;;;;;;;;;;;;5020937;28;20322;-68
2023/01/06 07:34:34;;;;;;;;;;;;;;;;;;5012258;28;19921;-66
2023/01/06 07:37:00;;;;;;;;;;;;;;;;;;5011238;28;20608;-69
2023/01/06 07:39:26;;;;;;;;;;;;;;;;;;5015994;28;19924;-69
2023/01/06 07:41:52;;;;;;;;;;;;;;;;;;5006960;28;19932;-67
2023/01/06 07:44:18;;;;;;;;;;;;;;;;;;5020318;28;20351;-69
2023/01/06 07:46:43;;;;;;;;;;;;;;;;;;5006660;28;20425;-69
2023/01/06 07:49:09;;;;;;;;;;;;;;;;;;5020216;28;19925;-68
2023/01/06 07:51:35;;;;;;;;;;;;;;;;;;5015897;28;19964;-69
2023/01/06 07:54:01;;;;;;;;;;;;;;;;;;5010779;28;19924;-67
2023/01/06 07:56:27;;;;;;;;;;;;;;;;;;5016288;28;20436;-68
2023/01/06 07:58:56;;;;;;;;;;;;;;;;;;5002493;28;19963;-68
2023/01/06 08:01:22;;;;;;;;;;;;;;;;;;5011728;28;20306;-67
2023/01/06 08:03:48;;;;;;;;;;;;;;;;;;5011566;28;19920;-69
2023/01/06 08:06:14;;;;;;;;;;;;;;;;;;5019226;28;20549;-68
2023/01/06 08:08:40;;;;;;;;;;;;;;;;;;5019770;28;20015;-69
2023/01/06 08:11:06;;;;;;;;;;;;;;;;;;5019763;28;20370;-68
2023/01/06 08:13:32;;;;;;;;;;;;;;;;;;5013003;28;19921;-68
2023/01/06 08:15:58;;;;;;;;;;;;;;;;;;5016240;28;19929;-68
2023/01/06 08:18:24;;;;;;;;;;;;;;;;;;5023037;28;20127;-68
2023/01/06 08:20:50;;;;;;;;;;;;;;;;;;5013810;28;19921;-68
2023/01/06 08:23:16;;;;;;;;;;;;;;;;;;5016734;28;19921;-67
2023/01/06 08:25:42;;;;;;;;;;;;;;;;;;5005461;28;20037;-69
2023/01/06 08:28:08;;;;;;;;;;;;;;;;;;5010639;28;19924;-68
2023/01/06 08:30:38;;;;;;;;;;;;;;;;;;5017659;28;19963;-69
2023/01/06 08:33:04;;;;;;;;;;;;;;;;;;5024891;28;19921;-68
2023/01/06 08:35:30;;;;;;;;;;;;;;;;;;5001673;28;20022;-67
2023/01/06 08:37:56;;;;;;;;;;;;;;;;;;5023960;28;19928;-69
2023/01/06 08:40:22;;;;;;;;;;;;;;;;;;5022322;28;19925;-69
2023/01/06 08:42:48;;;;;;;;;;;;;;;;;;5010618;28;20393;-69
2023/01/06 08:45:13;;;;;;;;;;;;;;;;;;5014563;28;19917;-69
2023/01/06 08:47:39;;;;;;;;;;;;;;;;;;5014528;28;20063;-68
2023/01/06 08:50:05;;;;;;;;;;;;;;;;;;5016179;28;19971;-69
2023/01/06 08:52:31;;;;;;;;;;;;;;;;;;5020669;28;20318;-68
2023/01/06 08:54:58;;;;;;;;;;;;;;;;;;5014302;28;20325;-69
2023/01/06 08:57:24;;;;;;;;;;;;;;;;;;5021890;28;19921;-68
2023/01/06 08:59:50;;;;;;;;;;;;;;;;;;5017856;28;20506;-68
2023/01/06 09:02:16;;;;;;;;;;;;;;;;;;5013950;28;19992;-67
2023/01/06 09:04:42;;;;;;;;;;;;;;;;;;5022486;28;19928;-69
2023/01/06 09:07:08;;;;;;;;;;;;;;;;;;5029655;28;19958;-69
2023/01/06 09:09:34;;;;;;;;;;;;;;;;;;5026266;28;19925;-68
2023/01/06 09:11:59;;;;;;;;;;;;;;;;;;5025332;28;19917;-69
2023/01/06 09:14:25;;;;;;;;;;;;;;;;;;5016197;28;20668;-69
2023/01/06 09:16:51;;;;;;;;;;;;;;;;;;5028621;28;19944;-70
2023/01/06 09:19:19;;;;;;;;;;;;;;;;;;5025479;28;19954;-68
2023/01/06 09:21:45;;;;;;;;;;;;;;;;;;5025990;28;19936;-68
2023/01/06 09:24:11;;;;;;;;;;;;;;;;;;5028730;28;19952;-68
2023/01/06 09:26:36;;;;;;;;;;;;;;;;;;5028763;28;19921;-67
2023/01/06 09:29:02;;;;;;;;;;;;;;;;;;5019573;28;19938;-69
2023/01/06 09:31:28;;;;;;;;;;;;;;;;;;5020198;28;19959;-68
2023/01/06 09:33:54;;;;;;;;;;;;;;;;;;5024157;28;19928;-68
2023/01/06 09:36:20;;;;;;;;;;;;;;;;;;5028642;28;20367;-68
2023/01/06 09:38:46;;;;;;;;;;;;;;;;;;5027202;28;19927;-68
2023/01/06 09:41:12;;;;;;;;;;;;;;;;;;5026224;28;19925;-68
2023/01/06 09:43:38;;;;;;;;;;;;;;;;;;5025638;28;19927;-69
2023/01/06 09:46:04;;;;;;;;;;;;;;;;;;5018905;28;20626;-68
2023/01/06 09:48:29;;;;;;;;;;;;;;;;;;5023943;28;19975;-67
2023/01/06 09:50:55;;;;;;;;;;;;;;;;;;5023509;28;19924;-68
2023/01/06 09:53:21;;;;;;;;;;;;;;;;;;5028076;28;19959;-68
2023/01/06 09:55:47;;;;;;;;;;;;;;;;;;5022736;28;20409;-69
2023/01/06 09:58:13;;;;;;;;;;;;;;;;;;5029643;28;19925;-67
2023/01/06 10:00:39;;;;;;;;;;;;;;;;;;5025527;28;19924;-69
2023/01/06 10:03:05;;;;;;;;;;;;;;;;;;5002117;28;19925;-67
2023/01/06 10:05:30;;;;;;;;;;;;;;;;;;5012370;28;20383;-69
2023/01/06 10:07:56;;;;;;;;;;;;;;;;;;5001073;28;19931;-69
2023/01/06 10:10:22;;;;;;;;;;;;;;;;;;5018731;28;19925;-69
2023/01/06 10:12:48;;;;;;;;;;;;;;;;;;5017091;28;20329;-70
2023/01/06 10:15:14;;;;;;;;;;;;;;;;;;5022046;28;19935;-68
2023/01/06 10:17:40;;;;;;;;;;;;;;;;;;5025219;28;19955;-68
2023/01/06 10:20:06;;;;;;;;;;;;;;;;;;5023516;28;19939;-68
2023/01/06 10:22:32;;;;;;;;;;;;;;;;;;5022135;28;21377;-68
2023/01/06 10:24:57;;;;;;;;;;;;;;;;;;5017514;28;20294;-68
2023/01/06 10:27:23;;;;;;;;;;;;;;;;;;5020956;28;20024;-69
2023/01/06 10:29:49;;;;;;;;;;;;;;;;;;5022239;28;19920;-68
2023/01/06 10:32:15;;;;;;;;;;;;;;;;;;5020785;28;20239;-69
2023/01/06 10:34:41;;;;;;;;;;;;;;;;;;5021201;28;20038;-68
2023/01/06 10:37:07;;;;;;;;;;;;;;;;;;5001229;28;19948;-68
2023/01/06 10:39:33;;;;;;;;;;;;;;;;;;5019925;28;19947;-69
2023/01/06 10:42:54;;;;;;;;;;;;;;;;;;4998863;28;19931;-68
2023/01/06 10:44:44;;;;;;;;;;;;;;;;;;5017315;28;19998;-69
2023/01/06 10:47:10;;;;;;;;;;;;;;;;;;5022967;28;19940;-69
2023/01/06 10:49:36;;;;;;;;;;;;;;;;;;5006940;28;19955;-68
2023/01/06 10:52:02;;;;;;;;;;;;;;;;;;5017050;28;20014;-68
2023/01/06 10:54:28;;;;;;;;;;;;;;;;;;5024800;28;19924;-67
2023/01/06 10:56:54;;;;;;;;;;;;;;;;;;5022841;28;20821;-69
2023/01/06 10:59:20;;;;;;;;;;;;;;;;;;5025091;28;20230;-68
2023/01/06 11:01:47;;;;;;;;;;;;;;;;;;5015817;28;19925;-67
2023/01/06 11:04:14;;;;;;;;;;;;;;;;;;5010483;28;19931;-67
2023/01/06 11:06:40;;;;;;;;;;;;;;;;;;5020038;28;19921;-67
2023/01/06 11:09:06;;;;;;;;;;;;;;;;;;5005857;28;20349;-67
2023/01/06 11:11:32;;;;;;;;;;;;;;;;;;5018625;28;19925;-68
2023/01/06 11:13:57;;;;;;;;;;;;;;;;;;5020744;28;19979;-69
2023/01/06 11:16:23;;;;;;;;;;;;;;;;;;5017963;28;19921;-69
2023/01/06 11:18:49;;;;;;;;;;;;;;;;;;5013145;28;19925;-68
2023/01/06 11:21:15;;;;;;;;;;;;;;;;;;5016041;28;19947;-68
2023/01/06 11:23:41;;;;;;;;;;;;;;;;;;5018099;28;19925;-69
2023/01/06 11:26:09;;;;;;;;;;;;;;;;;;5020160;28;20422;-69
2023/01/06 11:28:35;;;;;;;;;;;;;;;;;;5003110;28;19936;-69
2023/01/06 11:31:00;;;;;;;;;;;;;;;;;;5023960;28;19925;-69
2023/01/06 11:33:26;;;;;;;;;;;;;;;;;;5022273;28;19972;-67
2023/01/06 11:35:52;;;;;;;;;;;;;;;;;;5020430;28;20381;-67
2023/01/06 11:38:18;;;;;;;;;;;;;;;;;;5020940;28;20001;-67
2023/01/06 11:40:44;;;;;;;;;;;;;;;;;;5020625;28;20503;-68
2023/01/06 11:43:10;;;;;;;;;;;;;;;;;;5012987;28;19975;-69
2023/01/06 11:45:36;;;;;;;;;;;;;;;;;;4992118;28;19931;-67
2023/01/06 11:48:01;;;;;;;;;;;;;;;;;;5010785;28;19925;-67
2023/01/06 11:50:27;;;;;;;;;;;;;;;;;;5015844;28;20031;-69
2023/01/06 11:52:53;;;;;;;;;;;;;;;;;;4995242;28;20367;-67
2023/01/06 11:55:19;;;;;;;;;;;;;;;;;;4994905;28;19924;-70
2023/01/06 11:57:45;;;;;;;;;;;;;;;;;;5010605;28;20101;-68
2023/01/06 12:00:11;;;;;;;;;;;;;;;;;;5007769;28;20167;-68
2023/01/06 12:02:37;;;;;;;;;;;;;;;;;;5008938;28;19931;-69
2023/01/06 12:05:03;;;;;;;;;;;;;;;;;;5016935;28;19925;-69
2023/01/06 12:07:29;;;;;;;;;;;;;;;;;;4998730;28;19936;-69
2023/01/06 12:09:55;;;;;;;;;;;;;;;;;;4982427;28;20287;-69
2023/01/06 12:12:21;;;;;;;;;;;;;;;;;;4984391;28;20339;-68
2023/01/06 12:14:47;;;;;;;;;;;;;;;;;;4981905;28;20011;-69
2023/01/06 12:17:12;;;;;;;;;;;;;;;;;;4984455;28;19925;-69
2023/01/06 12:19:38;;;;;;;;;;;;;;;;;;4989497;28;20271;-70
2023/01/06 12:22:04;;;;;;;;;;;;;;;;;;4982323;28;19931;-68
2023/01/06 12:24:32;;;;;;;;;;;;;;;;;;4985055;28;20434;-70
2023/01/06 12:26:57;;;;;;;;;;;;;;;;;;4965284;28;20035;-69
2023/01/06 12:29:23;;;;;;;;;;;;;;;;;;4978462;28;19929;-70
2023/01/06 12:31:51;;;;;;;;;;;;;;;;;;4979805;28;21301;-70
2023/01/06 12:34:17;;;;;;;;;;;;;;;;;;4972074;28;19932;-70
2023/01/06 12:36:43;;;;;;;;;;;;;;;;;;4995810;28;19925;-70
2023/01/06 12:39:09;;;;;;;;;;;;;;;;;;4969536;28;19921;-70
2023/01/06 12:41:35;;;;;;;;;;;;;;;;;;4994345;28;19952;-69
2023/01/06 12:44:01;;;;;;;;;;;;;;;;;;4999251;28;19929;-69
2023/01/06 12:46:27;;;;;;;;;;;;;;;;;;4994734;28;19925;-69
2023/01/06 12:48:53;;;;;;;;;;;;;;;;;;5000143;28;19925;-69
2023/01/06 12:51:19;;;;;;;;;;;;;;;;;;4999895;28;19925;-70
2023/01/06 12:53:45;;;;;;;;;;;;;;;;;;4998777;28;19932;-70
2023/01/06 12:56:10;;;;;;;;;;;;;;;;;;4998844;28;19925;-70
2023/01/06 12:58:36;;;;;;;;;;;;;;;;;;4997320;28;20346;-68
2023/01/06 13:01:02;;;;;;;;;;;;;;;;;;4983500;28;20234;-71
2023/01/06 13:03:28;;;;;;;;;;;;;;;;;;4987408;28;19928;-69
2023/01/06 13:05:54;;;;;;;;;;;;;;;;;;4999989;28;19932;-70
2023/01/06 13:08:20;;;;;;;;;;;;;;;;;;5022298;28;19929;-68
2023/01/06 13:10:46;;;;;;;;;;;;;;;;;;5027386;28;19925;-69
2023/01/06 13:13:12;;;;;;;;;;;;;;;;;;5026832;28;20349;-69
2023/01/06 13:15:38;;;;;;;;;;;;;;;;;;5014992;28;19975;-68
2023/01/06 13:18:04;;;;;;;;;;;;;;;;;;5028064;28;20512;-70
2023/01/06 13:20:30;;;;;;;;;;;;;;;;;;5026251;28;20019;-69
2023/01/06 13:22:56;;;;;;;;;;;;;;;;;;5024647;28;19932;-70
2023/01/06 13:25:22;;;;;;;;;;;;;;;;;;5023465;28;19921;-69
2023/01/06 13:27:48;;;;;;;;;;;;;;;;;;4998516;28;20424;-69
2023/01/06 13:30:14;;;;;;;;;;;;;;;;;;4997922;28;19917;-69
2023/01/06 13:32:40;;;;;;;;;;;;;;;;;;5023963;28;20420;-68
2023/01/06 13:35:06;;;;;;;;;;;;;;;;;;5010297;28;19916;-69
2023/01/06 13:37:32;;;;;;;;;;;;;;;;;;5020249;28;19933;-68
2023/01/06 13:39:58;;;;;;;;;;;;;;;;;;5002433;28;20011;-69
2023/01/06 13:42:24;;;;;;;;;;;;;;;;;;5012842;28;20369;-69
2023/01/06 13:44:49;;;;;;;;;;;;;;;;;;5021272;28;19916;-70
2023/01/06 13:47:15;;;;;;;;;;;;;;;;;;5016818;28;20280;-68
2023/01/06 13:49:41;;;;;;;;;;;;;;;;;;5016650;28;19929;-69
2023/01/06 13:52:07;;;;;;;;;;;;;;;;;;5019896;28;19920;-68
2023/01/06 13:54:33;;;;;;;;;;;;;;;;;;5022648;28;19932;-67
2023/01/06 13:56:59;;;;;;;;;;;;;;;;;;5014507;28;19917;-69
2023/01/06 13:59:25;;;;;;;;;;;;;;;;;;5013685;28;20558;-70
2023/01/06 14:01:51;;;;;;;;;;;;;;;;;;5020145;28;19925;-69
2023/01/06 14:04:16;;;;;;;;;;;;;;;;;;5020924;28;19978;-71
2023/01/06 14:06:42;;;;;;;;;;;;;;;;;;5021204;28;19937;-69
2023/01/06 14:09:08;;;;;;;;;;;;;;;;;;5018444;28;20295;-69
2023/01/06 14:11:34;;;;;;;;;;;;;;;;;;5012917;28;19921;-69
2023/01/06 14:14:00;;;;;;;;;;;;;;;;;;5024103;28;19928;-68
2023/01/06 14:16:26;;;;;;;;;;;;;;;;;;5015020;28;19925;-68
2023/01/06 14:18:52;;;;;;;;;;;;;;;;;;5018461;28;19924;-70
2023/01/06 14:21:19;;;;;;;;;;;;;;;;;;5026917;28;20302;-70
2023/01/06 14:23:44;;;;;;;;;;;;;;;;;;5017917;28;20011;-69
2023/01/06 14:26:10;;;;;;;;;;;;;;;;;;5014081;28;20286;-68
2023/01/06 14:28:36;;;;;;;;;;;;;;;;;;5021713;28;19975;-68
2023/01/06 14:31:02;;;;;;;;;;;;;;;;;;5019420;28;19925;-69
2023/01/06 14:33:28;;;;;;;;;;;;;;;;;;5020057;28;20416;-70
2023/01/06 14:35:54;;;;;;;;;;;;;;;;;;4994226;28;19921;-70
2023/01/06 14:38:20;;;;;;;;;;;;;;;;;;5028521;28;20026;-69
2023/01/06 14:40:45;;;;;;;;;;;;;;;;;;5014606;28;20406;-69
2023/01/06 14:43:11;;;;;;;;;;;;;;;;;;5012808;28;20349;-69
2023/01/06 14:45:37;;;;;;;;;;;;;;;;;;5013778;28;19921;-68
2023/01/06 14:48:03;;;;;;;;;;;;;;;;;;5023922;28;19924;-69
2023/01/06 14:50:29;;;;;;;;;;;;;;;;;;5017637;28;19960;-68
2023/01/06 14:52:55;;;;;;;;;;;;;;;;;;5023380;28;20493;-68
2023/01/06 14:55:21;;;;;;;;;;;;;;;;;;5012740;28;20091;-69
2023/01/06 14:57:47;;;;;;;;;;;;;;;;;;5017779;28;19940;-68
2023/01/06 15:00:13;;;;;;;;;;;;;;;;;;5018940;28;21462;-68
2023/01/06 15:02:39;;;;;;;;;;;;;;;;;;5018302;28;20302;-69
2023/01/06 15:05:05;;;;;;;;;;;;;;;;;;5022183;28;19932;-68
2023/01/06 15:07:31;;;;;;;;;;;;;;;;;;5016793;28;20285;-68
2023/01/06 15:09:57;;;;;;;;;;;;;;;;;;5017525;28;19925;-70
2023/01/06 15:12:23;;;;;;;;;;;;;;;;;;5002872;28;19925;-69
2023/01/06 15:14:49;;;;;;;;;;;;;;;;;;5007656;28;19947;-69
2023/01/06 15:17:15;;;;;;;;;;;;;;;;;;5012020;28;19921;-69
2023/01/06 15:19:41;;;;;;;;;;;;;;;;;;5019699;28;19924;-69
2023/01/06 15:22:07;;;;;;;;;;;;;;;;;;5004719;28;20538;-69
2023/01/06 15:24:35;;;;;;;;;;;;;;;;;;5022254;28;20524;-68
2023/01/06 15:27:01;;;;;;;;;;;;;;;;;;5019342;28;20031;-69
2023/01/06 15:29:27;;;;;;;;;;;;;;;;;;5012749;28;20357;-68
2023/01/06 15:31:52;;;;;;;;;;;;;;;;;;5015871;28;19979;-69
2023/01/06 15:34:18;;;;;;;;;;;;;;;;;;5013374;28;19928;-69
2023/01/06 15:36:44;;;;;;;;;;;;;;;;;;5020444;28;20004;-69
2023/01/06 15:39:10;;;;;;;;;;;;;;;;;;5015464;28;20322;-68
2023/01/06 15:41:37;;;;;;;;;;;;;;;;;;5010481;28;19969;-69
2023/01/06 15:44:03;;;;;;;;;;;;;;;;;;5013911;28;19932;-69
2023/01/06 15:46:29;;;;;;;;;;;;;;;;;;5009136;28;19939;-68
2023/01/06 15:48:55;;;;;;;;;;;;;;;;;;5012539;28;19979;-69
2023/01/06 15:51:21;;;;;;;;;;;;;;;;;;5010965;28;19920;-68
2023/01/06 15:53:47;;;;;;;;;;;;;;;;;;5021478;28;19929;-68
2023/01/06 15:56:12;;;;;;;;;;;;;;;;;;5012962;28;19925;-68
2023/01/06 15:58:38;;;;;;;;;;;;;;;;;;5012148;28;19924;-68
2023/01/06 16:01:04;;;;;;;;;;;;;;;;;;5020650;28;19946;-70
2023/01/06 16:03:31;;;;;;;;;;;;;;;;;;5010981;28;20297;-70
2023/01/06 16:05:56;;;;;;;;;;;;;;;;;;5015598;28;19929;-69
2023/01/06 16:08:23;;;;;;;;;;;;;;;;;;4992538;28;21377;-69
2023/01/06 16:10:49;;;;;;;;;;;;;;;;;;5001027;28;19925;-69
2023/01/06 16:13:14;;;;;;;;;;;;;;;;;;4999500;28;19925;-70
2023/01/06 16:15:40;;;;;;;;;;;;;;;;;;4981023;28;19964;-69
2023/01/06 16:18:08;;;;;;;;;;;;;;;;;;4964908;28;19936;-69
2023/01/06 16:20:34;;;;;;;;;;;;;;;;;;4982602;28;19929;-70
2023/01/06 16:23:00;;;;;;;;;;;;;;;;;;4970436;28;20400;-69
2023/01/06 16:25:26;;;;;;;;;;;;;;;;;;4962213;28;19926;-69
2023/01/06 16:27:52;;;;;;;;;;;;;;;;;;4989706;28;19984;-70
2023/01/06 16:30:18;;;;;;;;;;;;;;;;;;4987846;28;19921;-69
2023/01/06 16:32:45;;;;;;;;;;;;;;;;;;4979180;28;19917;-69
2023/01/06 16:35:11;;;;;;;;;;;;;;;;;;4978477;28;19928;-69
2023/01/06 16:37:37;;;;;;;;;;;;;;;;;;5004131;28;19925;-70
2023/01/06 16:40:03;;;;;;;;;;;;;;;;;;4995174;28;19951;-69